createdAt,value
2022-10-06T00:00:26.022Z,101341.09
2022-10-06T00:02:52.485Z,101340.56
2022-10-06T00:05:18.911Z,101338.84
2022-10-06T00:07:45.368Z,101343.56
2022-10-06T00:10:11.754Z,101350.16
2022-10-06T00:12:42.926Z,101352.16
2022-10-06T00:15:11.984Z,101361.59
2022-10-06T00:17:39.074Z,101370.38
2022-10-06T00:20:06.422Z,101365.03
2022-10-06T00:22:34.988Z,101355.50
2022-10-06T00:25:01.527Z,101364.50
2022-10-06T00:27:34.087Z,101358.88
2022-10-06T00:30:00.478Z,101365.16
2022-10-06T00:32:26.864Z,101369.53
2022-10-06T00:34:54.019Z,101373.00
2022-10-06T00:37:20.410Z,101375.38
2022-10-06T00:39:47.070Z,101380.84
2022-10-06T00:42:31.483Z,101380.94
2022-10-06T00:45:02.460Z,101383.97
2022-10-06T00:47:30.967Z,101383.03
2022-10-06T00:49:59.499Z,101380.00
2022-10-06T00:52:30.834Z,101380.84
2022-10-06T00:55:00.228Z,101379.91
2022-10-06T00:57:27.654Z,101380.75
2022-10-06T00:59:54.236Z,101389.84
2022-10-06T01:02:31.943Z,101392.34
2022-10-06T01:05:03.400Z,101385.44
2022-10-06T01:07:30.033Z,101403.03
2022-10-06T01:10:00.722Z,101387.56
2022-10-06T01:12:29.758Z,101403.16
2022-10-06T01:14:57.291Z,101402.03
2022-10-06T01:17:30.047Z,101406.59
2022-10-06T01:20:00.811Z,101405.97
2022-10-06T01:22:36.707Z,101415.31
2022-10-06T01:25:06.079Z,101411.34
2022-10-06T01:27:33.822Z,101404.31
2022-10-06T01:30:01.479Z,101417.91
2022-10-06T01:32:34.135Z,101406.84
2022-10-06T01:35:00.557Z,101407.03
2022-10-06T01:37:28.352Z,101408.38
2022-10-06T01:39:54.765Z,101407.75
2022-10-06T01:42:23.359Z,101408.22
2022-10-06T01:44:49.761Z,101412.50
2022-10-06T01:47:16.195Z,101415.00
2022-10-06T01:49:42.599Z,101411.63
2022-10-06T01:52:09.306Z,101403.69
2022-10-06T01:54:35.695Z,101410.78
2022-10-06T01:57:02.101Z,101402.66
2022-10-06T01:59:28.519Z,101411.75
2022-10-06T02:01:55.025Z,101406.94
2022-10-06T02:04:22.074Z,101411.44
2022-10-06T02:06:48.536Z,101404.31
2022-10-06T02:09:14.998Z,101407.03
2022-10-06T02:11:42.703Z,101418.34
2022-10-06T02:14:09.140Z,101415.00
2022-10-06T02:16:36.072Z,101416.16
2022-10-06T02:19:02.482Z,101419.81
2022-10-06T02:21:28.917Z,101423.47
2022-10-06T02:23:55.298Z,101426.94
2022-10-06T02:26:21.758Z,101428.38
2022-10-06T02:28:50.075Z,101429.84
2022-10-06T02:31:20.219Z,101435.31
2022-10-06T02:33:46.660Z,101431.66
2022-10-06T02:36:16.637Z,101433.84
2022-10-06T02:38:43.753Z,101433.31
2022-10-06T02:41:11.104Z,101446.09
2022-10-06T02:43:38.501Z,101454.91
2022-10-06T02:46:09.109Z,101456.28
2022-10-06T02:48:35.798Z,101458.56
2022-10-06T02:51:09.481Z,101455.50
2022-10-06T02:53:37.150Z,101457.09
2022-10-06T02:56:10.786Z,101463.56
2022-10-06T02:58:39.825Z,101462.44
2022-10-06T03:01:18.158Z,101478.75
2022-10-06T03:03:46.689Z,101475.44
2022-10-06T03:06:24.738Z,101478.56
2022-10-06T03:09:13.754Z,101489.56
2022-10-06T03:11:43.221Z,101504.00
2022-10-06T03:14:16.600Z,101505.25
2022-10-06T03:16:45.685Z,101498.75
2022-10-06T03:19:20.943Z,101502.63
2022-10-06T03:21:47.435Z,101508.75
2022-10-06T03:24:14.279Z,101512.06
2022-10-06T03:26:46.201Z,101519.34
2022-10-06T03:29:13.829Z,101536.81
2022-10-06T03:31:43.666Z,101548.75
2022-10-06T03:34:13.440Z,101563.09
2022-10-06T03:36:39.843Z,101559.25
2022-10-06T03:39:06.783Z,101565.09
2022-10-06T03:41:36.054Z,101569.59
2022-10-06T03:44:03.865Z,101578.91
2022-10-06T03:46:34.492Z,101586.25
2022-10-06T03:49:03.130Z,101581.19
2022-10-06T03:51:39.068Z,101587.09
2022-10-06T03:54:10.734Z,101600.09
2022-10-06T03:56:40.985Z,101604.81
2022-10-06T03:59:12.300Z,101599.00
2022-10-06T04:01:42.596Z,101607.78
2022-10-06T04:04:11.573Z,101619.16
2022-10-06T04:06:41.834Z,101627.97
2022-10-06T04:09:15.625Z,101634.38
2022-10-06T04:11:44.398Z,101639.78
2022-10-06T04:14:14.717Z,101648.66
2022-10-06T04:16:44.301Z,101646.06
2022-10-06T04:19:12.722Z,101656.25
2022-10-06T04:21:44.832Z,101655.25
2022-10-06T04:24:15.741Z,101649.69
2022-10-06T04:26:45.417Z,101666.94
2022-10-06T04:29:13.158Z,101658.63
2022-10-06T04:31:41.031Z,101669.97
2022-10-06T04:34:12.998Z,101668.44
2022-10-06T04:36:42.539Z,101693.56
2022-10-06T04:39:13.542Z,101686.59
2022-10-06T04:41:47.225Z,101688.28
2022-10-06T04:44:19.023Z,101696.22
2022-10-06T04:46:46.007Z,101691.84
2022-10-06T04:49:19.444Z,101699.72
2022-10-06T04:51:50.244Z,101703.72
2022-10-06T04:54:17.528Z,101708.78
2022-10-06T04:56:44.931Z,101709.31
2022-10-06T04:59:11.461Z,101727.69
2022-10-06T05:01:40.778Z,101734.06
2022-10-06T05:04:10.447Z,101736.91
2022-10-06T05:06:41.929Z,101744.75
2022-10-06T05:09:11.373Z,101748.69
2022-10-06T05:11:40.484Z,101748.69
2022-10-06T05:14:09.274Z,101761.44
2022-10-06T05:16:39.051Z,101772.97
2022-10-06T05:19:06.515Z,101774.28
2022-10-06T05:21:33.334Z,101780.16
2022-10-06T05:24:00.969Z,101780.72
2022-10-06T05:26:31.055Z,101786.22
2022-10-06T05:28:58.730Z,101802.19
2022-10-06T05:31:28.057Z,101804.38
2022-10-06T05:33:56.330Z,101814.44
2022-10-06T05:36:25.460Z,101827.78
2022-10-06T05:38:53.646Z,101833.38
2022-10-06T05:41:28.939Z,101835.31
2022-10-06T05:43:58.302Z,101857.78
2022-10-06T05:46:29.997Z,101857.53
2022-10-06T05:49:00.239Z,101867.34
2022-10-06T05:51:31.870Z,101869.31
2022-10-06T05:54:00.832Z,101884.91
2022-10-06T05:56:29.683Z,101891.69
2022-10-06T05:58:57.910Z,101897.97
2022-10-06T06:01:28.383Z,101912.06
2022-10-06T06:03:56.335Z,101920.88
2022-10-06T06:06:28.274Z,101911.81
2022-10-06T06:09:00.798Z,101928.66
2022-10-06T06:11:31.395Z,101928.97
2022-10-06T06:13:59.571Z,101933.47
2022-10-06T06:16:28.603Z,101948.44
2022-10-06T06:18:55.075Z,101950.59
2022-10-06T06:21:21.709Z,101951.50
2022-10-06T06:23:50.065Z,101954.84
2022-10-06T06:26:18.710Z,101969.19
2022-10-06T06:28:48.666Z,101974.28
2022-10-06T06:31:23.695Z,101979.66
2022-10-06T06:33:52.223Z,101976.81
2022-10-06T06:36:31.895Z,101987.44
2022-10-06T06:38:58.687Z,101992.03
2022-10-06T06:41:31.545Z,101996.22
2022-10-06T06:44:08.271Z,102011.00
2022-10-06T06:46:37.784Z,102006.19
2022-10-06T06:49:11.998Z,102011.91
2022-10-06T06:51:44.630Z,102013.03
2022-10-06T06:54:12.868Z,102023.69
2022-10-06T06:56:42.547Z,102034.38
2022-10-06T06:59:11.697Z,102031.56
2022-10-06T07:01:47.306Z,102034.38
2022-10-06T07:04:16.842Z,102043.69
2022-10-06T07:06:53.320Z,102056.31
2022-10-06T07:09:20.812Z,102059.34
2022-10-06T07:11:47.643Z,102064.72
2022-10-06T07:14:18.485Z,102069.22
2022-10-06T07:17:06.028Z,102069.88
2022-10-06T07:19:50.784Z,102070.84
2022-10-06T07:22:39.767Z,102086.63
2022-10-06T07:25:25.699Z,102083.41
2022-10-06T07:27:56.343Z,102095.03
2022-10-06T07:30:29.003Z,102096.19
2022-10-06T07:33:00.426Z,102106.94
2022-10-06T07:35:27.496Z,102107.78
2022-10-06T07:37:53.942Z,102115.22
2022-10-06T07:40:22.597Z,102121.09
2022-10-06T07:42:51.891Z,102124.88
2022-10-06T07:45:45.146Z,102120.63
2022-10-06T07:48:19.175Z,102124.03
2022-10-06T07:50:52.387Z,102128.78
2022-10-06T07:53:28.009Z,102133.88
2022-10-06T07:56:08.338Z,102136.94
2022-10-06T07:58:39.527Z,102128.13
2022-10-06T08:01:08.527Z,102139.00
2022-10-06T08:03:37.742Z,102149.44
2022-10-06T08:06:04.327Z,102143.78
2022-10-06T08:08:32.755Z,102155.66
2022-10-06T08:11:01.521Z,102157.31
2022-10-06T08:13:28.423Z,102163.13
2022-10-06T08:15:56.431Z,102166.13
2022-10-06T08:18:45.424Z,102179.97
2022-10-06T08:21:16.775Z,102179.31
2022-10-06T08:23:44.794Z,102179.63
2022-10-06T08:26:12.997Z,102187.78
2022-10-06T08:28:43.214Z,102182.97
2022-10-06T08:31:34.968Z,102190.59
2022-10-06T08:34:01.542Z,102207.19
2022-10-06T08:36:31.832Z,102208.09
2022-10-06T08:38:58.967Z,102208.41
2022-10-06T08:41:32.413Z,102207.53
2022-10-06T08:44:07.343Z,102219.28
2022-10-06T08:46:49.377Z,102220.97
2022-10-06T08:49:20.084Z,102218.38
2022-10-06T08:52:06.994Z,102231.03
2022-10-06T08:54:43.635Z,102237.28
2022-10-06T08:57:20.339Z,102229.88
2022-10-06T08:59:49.223Z,102233.84
2022-10-06T09:02:39.259Z,102241.78
2022-10-06T09:05:06.815Z,102245.00
2022-10-06T09:07:45.942Z,102244.94
2022-10-06T09:10:33.713Z,102248.66
2022-10-06T09:13:06.708Z,102240.19
2022-10-06T09:15:40.370Z,102260.88
2022-10-06T09:18:17.995Z,102258.94
2022-10-06T09:20:53.315Z,102265.44
2022-10-06T09:23:39.729Z,102262.88
2022-10-06T09:26:11.479Z,102273.25
2022-10-06T09:28:37.943Z,102258.56
2022-10-06T09:31:18.331Z,102267.25
2022-10-06T09:33:45.446Z,102276.28
2022-10-06T09:36:15.761Z,102276.63
2022-10-06T09:38:56.467Z,102283.47
2022-10-06T09:41:28.193Z,102283.72
2022-10-06T09:44:04.670Z,102285.53
2022-10-06T09:46:41.612Z,102292.13
2022-10-06T09:49:20.121Z,102282.31
2022-10-06T09:51:59.872Z,102293.28
2022-10-06T09:54:28.658Z,102291.94
2022-10-06T09:56:57.702Z,102300.69
2022-10-06T09:59:42.291Z,102294.28
2022-10-06T10:02:31.446Z,102307.19
2022-10-06T10:04:58.282Z,102312.44
2022-10-06T10:07:30.111Z,102309.66
2022-10-06T10:10:24.734Z,102316.88
2022-10-06T10:12:56.350Z,102323.53
2022-10-06T10:15:22.665Z,102323.00
2022-10-06T10:17:50.331Z,102322.34
2022-10-06T10:20:23.663Z,102309.97
2022-10-06T10:22:52.295Z,102321.25
2022-10-06T10:25:38.698Z,102328.53
2022-10-06T10:28:10.926Z,102326.22
2022-10-06T10:30:49.935Z,102317.72
2022-10-06T10:33:30.080Z,102326.22
2022-10-06T10:35:58.764Z,102327.81
2022-10-06T10:38:26.904Z,102336.56
2022-10-06T10:41:02.616Z,102339.91
2022-10-06T10:43:33.914Z,102340.69
2022-10-06T10:46:16.803Z,102336.59
2022-10-06T10:48:59.166Z,102337.22
2022-10-06T10:51:31.413Z,102342.84
2022-10-06T10:54:30.612Z,102348.13
2022-10-06T10:56:58.287Z,102334.75
2022-10-06T10:59:34.093Z,102351.19
2022-10-06T11:02:15.579Z,102344.97
2022-10-06T11:04:47.125Z,102345.19
2022-10-06T11:07:30.614Z,102349.47
2022-10-06T11:10:03.023Z,102343.06
2022-10-06T11:13:04.653Z,102356.53
2022-10-06T11:15:58.703Z,102363.84
2022-10-06T11:18:51.858Z,102358.91
2022-10-06T11:21:23.979Z,102347.91
2022-10-06T11:24:14.644Z,102360.78
2022-10-06T11:27:02.458Z,102369.50
2022-10-06T11:29:40.525Z,102374.28
2022-10-06T11:32:35.499Z,102370.53
2022-10-06T11:35:03.072Z,102358.81
2022-10-06T11:37:42.379Z,102349.81
2022-10-06T11:40:52.134Z,102366.44
2022-10-06T11:43:35.882Z,102369.44
2022-10-06T11:46:20.144Z,102373.75
2022-10-06T11:48:46.772Z,102374.75
2022-10-06T11:51:28.360Z,102368.88
2022-10-06T11:53:59.263Z,102369.06
2022-10-06T11:56:35.912Z,102370.69
2022-10-06T11:59:13.166Z,102373.75
2022-10-06T12:01:47.623Z,102372.28
2022-10-06T12:04:18.511Z,102379.19
2022-10-06T12:06:53.906Z,102374.34
2022-10-06T12:09:26.209Z,102380.19
2022-10-06T12:12:14.967Z,102380.28
2022-10-06T12:18:29.642Z,102369.34
2022-10-06T12:21:08.149Z,102373.88
2022-10-06T12:23:45.451Z,102366.47
2022-10-06T12:26:44.163Z,102375.72
2022-10-06T12:29:32.052Z,102378.19
2022-10-06T12:32:12.996Z,102384.34
2022-10-06T12:34:39.288Z,102381.94
2022-10-06T12:37:40.341Z,102380.72
2022-10-06T12:40:25.352Z,102381.59
2022-10-06T12:42:54.205Z,102379.66
2022-10-06T12:45:22.418Z,102384.09
2022-10-06T12:47:48.992Z,102383.28
2022-10-06T12:50:22.761Z,102386.53
2022-10-06T12:53:08.671Z,102387.63
2022-10-06T12:55:45.874Z,102367.41
2022-10-06T12:58:20.446Z,102380.69
2022-10-06T13:00:47.691Z,102382.94
2022-10-06T13:03:24.304Z,102386.66
2022-10-06T13:05:53.655Z,102388.41
2022-10-06T13:08:28.871Z,102391.94
2022-10-06T13:11:21.498Z,102389.38
2022-10-06T13:13:53.189Z,102394.22
2022-10-06T13:16:22.952Z,102386.53
2022-10-06T13:18:54.768Z,102390.34
2022-10-06T13:21:21.249Z,102389.84
2022-10-06T13:23:48.621Z,102390.69
2022-10-06T13:26:30.210Z,102391.44
2022-10-06T13:28:58.720Z,102390.63
2022-10-06T13:31:31.286Z,102396.16
2022-10-06T13:34:15.897Z,102388.81
2022-10-06T13:36:45.260Z,102400.19
2022-10-06T13:39:14.536Z,102397.06
2022-10-06T13:41:53.924Z,102410.56
2022-10-06T13:44:37.978Z,102408.75
2022-10-06T13:47:14.426Z,102401.97
2022-10-06T13:50:03.815Z,102406.13
2022-10-06T13:52:40.737Z,102403.16
2022-10-06T13:55:18.513Z,102405.44
2022-10-06T13:57:47.526Z,102413.72
2022-10-06T14:00:23.623Z,102413.63
2022-10-06T14:03:10.862Z,102415.81
2022-10-06T14:05:44.452Z,102408.44
2022-10-06T14:08:10.827Z,102409.75
2022-10-06T14:10:47.505Z,102416.75
2022-10-06T14:13:26.412Z,102415.19
2022-10-06T14:15:57.288Z,102414.16
2022-10-06T14:18:33.020Z,102414.59
2022-10-06T14:21:15.630Z,102411.97
2022-10-06T14:23:48.096Z,102411.72
2022-10-06T14:26:16.239Z,102412.75
2022-10-06T14:28:52.649Z,102414.53
2022-10-06T14:31:23.946Z,102419.91
2022-10-06T14:33:52.658Z,102423.97
2022-10-06T14:36:34.459Z,102428.16
2022-10-06T14:39:01.688Z,102433.38
2022-10-06T14:41:29.664Z,102420.69
2022-10-06T14:44:08.576Z,102429.84
2022-10-06T14:46:36.204Z,102424.41
2022-10-06T14:49:07.576Z,102422.09
2022-10-06T14:51:37.027Z,102418.88
2022-10-06T14:54:04.934Z,102416.25
2022-10-06T14:56:33.494Z,102419.56
2022-10-06T14:59:04.544Z,102422.94
2022-10-06T15:01:33.249Z,102422.72
2022-10-06T15:04:05.767Z,102422.22
2022-10-06T15:06:50.962Z,102419.56
2022-10-06T15:09:17.358Z,102425.06
2022-10-06T15:11:43.748Z,102414.25
2022-10-06T15:14:10.451Z,102428.31
2022-10-06T15:16:40.548Z,102423.53
2022-10-06T15:19:07.132Z,102434.75
2022-10-06T15:21:33.593Z,102438.03
2022-10-06T15:24:02.697Z,102434.50
2022-10-06T15:26:49.046Z,102441.63
2022-10-06T15:29:16.242Z,102437.91
2022-10-06T15:31:44.825Z,102440.00
2022-10-06T15:34:13.455Z,102434.41
2022-10-06T15:36:41.711Z,102436.94
2022-10-06T15:39:10.370Z,102436.38
2022-10-06T15:41:38.359Z,102436.34
2022-10-06T15:44:06.399Z,102436.34
2022-10-06T15:46:35.881Z,102436.16
2022-10-06T15:49:04.992Z,102445.31
2022-10-06T15:51:38.341Z,102441.69
2022-10-06T15:54:05.346Z,102437.69
2022-10-06T15:56:32.010Z,102439.09
2022-10-06T15:58:59.370Z,102436.94
2022-10-06T16:01:34.597Z,102446.13
2022-10-06T16:04:08.996Z,102445.63
2022-10-06T16:06:44.082Z,102450.50
2022-10-06T16:09:12.049Z,102446.56
2022-10-06T16:11:39.450Z,102448.84
2022-10-06T16:14:07.787Z,102458.59
2022-10-06T16:16:35.247Z,102450.41
2022-10-06T16:19:03.518Z,102453.25
2022-10-06T16:21:31.091Z,102455.91
2022-10-06T16:23:58.296Z,102451.41
2022-10-06T16:26:25.663Z,102455.72
2022-10-06T16:28:52.932Z,102458.03
2022-10-06T16:31:20.877Z,102456.06
2022-10-06T16:33:48.102Z,102468.84
2022-10-06T16:36:16.071Z,102469.44
2022-10-06T16:38:42.599Z,102464.91
2022-10-06T16:41:09.370Z,102467.25
2022-10-06T16:43:38.814Z,102468.13
2022-10-06T16:46:07.535Z,102476.38
2022-10-06T16:48:36.328Z,102479.53
2022-10-06T16:51:26.757Z,102480.38
2022-10-06T16:53:57.412Z,102477.59
2022-10-06T16:56:27.235Z,102488.91
2022-10-06T16:58:56.303Z,102489.22
2022-10-06T17:01:25.331Z,102490.88
2022-10-06T17:04:12.008Z,102489.44
2022-10-06T17:07:01.554Z,102497.09
2022-10-06T17:09:29.091Z,102495.66
2022-10-06T17:11:59.255Z,102498.47
2022-10-06T17:14:27.556Z,102497.91
2022-10-06T17:16:55.877Z,102505.25
2022-10-06T17:19:24.399Z,102501.25
2022-10-06T17:21:57.340Z,102499.56
2022-10-06T17:24:28.427Z,102504.63
2022-10-06T17:26:56.121Z,102504.88
2022-10-06T17:29:24.215Z,102504.31
2022-10-06T17:31:58.561Z,102503.13
2022-10-06T17:34:31.362Z,102509.06
2022-10-06T17:36:59.265Z,102499.72
2022-10-06T17:39:25.647Z,102500.50
2022-10-06T17:41:53.528Z,102501.38
2022-10-06T17:44:23.235Z,102506.97
2022-10-06T17:46:52.832Z,102511.41
2022-10-06T17:49:21.201Z,102507.75
2022-10-06T17:51:49.066Z,102504.53
2022-10-06T17:54:19.146Z,102509.25
2022-10-06T17:56:50.644Z,102504.38
2022-10-06T17:59:20.000Z,102509.53
2022-10-06T18:01:46.601Z,102511.44
2022-10-06T18:04:17.373Z,102510.56
2022-10-06T18:06:45.063Z,102512.94
2022-10-06T18:09:12.401Z,102513.63
2022-10-06T18:11:41.688Z,102509.31
2022-10-06T18:14:13.685Z,102515.47
2022-10-06T18:16:43.891Z,102522.56
2022-10-06T18:19:13.801Z,102518.19
2022-10-06T18:21:41.750Z,102519.25
2022-10-06T18:24:16.478Z,102524.69
2022-10-06T18:26:44.006Z,102520.44
2022-10-06T18:29:11.550Z,102519.50
2022-10-06T18:31:38.722Z,102520.34
2022-10-06T18:36:52.714Z,102523.72
2022-10-06T18:39:19.117Z,102525.41
2022-10-06T18:41:47.526Z,102517.28
2022-10-06T18:44:13.955Z,102515.84
2022-10-06T18:46:58.795Z,102527.00
2022-10-06T18:49:25.260Z,102532.28
2022-10-06T18:51:58.118Z,102535.03
2022-10-06T18:54:31.540Z,102533.91
2022-10-06T18:56:58.173Z,102530.59
2022-10-06T18:59:26.878Z,102532.38
2022-10-06T19:01:55.951Z,102524.19
2022-10-06T19:04:23.834Z,102523.88
2022-10-06T19:06:52.963Z,102522.34
2022-10-06T19:09:22.436Z,102530.34
2022-10-06T19:11:51.187Z,102538.09
2022-10-06T19:14:25.649Z,102535.38
2022-10-06T19:16:58.973Z,102535.13
2022-10-06T19:19:27.489Z,102540.00
2022-10-06T19:21:59.443Z,102549.50
2022-10-06T19:24:29.377Z,102560.72
2022-10-06T19:26:56.503Z,102549.41
2022-10-06T19:29:26.729Z,102553.53
2022-10-06T19:31:59.371Z,102546.88
2022-10-06T19:34:26.445Z,102550.28
2022-10-06T19:36:52.975Z,102552.41
2022-10-06T19:39:32.964Z,102555.59
2022-10-06T19:42:18.147Z,102556.41
2022-10-06T19:44:44.613Z,102559.38
2022-10-06T19:47:14.562Z,102563.31
2022-10-06T19:49:42.149Z,102561.97
2022-10-06T19:52:11.408Z,102561.59
2022-10-06T19:54:39.446Z,102566.13
2022-10-06T19:57:06.534Z,102571.31
2022-10-06T19:59:33.006Z,102562.78
2022-10-06T20:01:59.493Z,102564.47
2022-10-06T20:04:26.053Z,102562.03
2022-10-06T20:06:52.609Z,102567.16
2022-10-06T20:09:21.486Z,102568.28
2022-10-06T20:11:50.223Z,102581.44
2022-10-06T20:14:21.094Z,102578.75
2022-10-06T20:16:49.148Z,102577.91
2022-10-06T20:19:16.326Z,102581.94
2022-10-06T20:21:42.883Z,102574.28
2022-10-06T20:24:16.007Z,102576.22
2022-10-06T20:26:43.205Z,102584.03
2022-10-06T20:29:11.863Z,102582.78
2022-10-06T20:31:44.247Z,102583.56
2022-10-06T20:34:17.139Z,102582.31
2022-10-06T20:36:44.024Z,102580.88
2022-10-06T20:39:35.101Z,102583.53
2022-10-06T20:42:01.895Z,102582.72
2022-10-06T20:44:28.790Z,102581.72
2022-10-06T20:46:55.232Z,102584.03
2022-10-06T20:49:21.859Z,102589.06
2022-10-06T20:51:52.327Z,102592.81
2022-10-06T20:54:23.986Z,102587.00
2022-10-06T20:56:53.427Z,102588.81
2022-10-06T20:59:21.350Z,102595.50
2022-10-06T21:01:51.001Z,102592.47
2022-10-06T21:04:18.878Z,102586.34
2022-10-06T21:06:45.502Z,102585.88
2022-10-06T21:09:15.090Z,102588.19
2022-10-06T21:11:41.609Z,102587.09
2022-10-06T21:14:11.272Z,102587.81
2022-10-06T21:16:42.002Z,102580.50
2022-10-06T21:19:13.582Z,102583.94
2022-10-06T21:21:41.527Z,102577.94
2022-10-06T21:24:08.969Z,102576.47
2022-10-06T21:26:35.659Z,102583.16
2022-10-06T21:29:02.369Z,102577.22
2022-10-06T21:31:29.109Z,102581.44
2022-10-06T21:33:55.793Z,102588.63
2022-10-06T21:36:24.470Z,102582.63
2022-10-06T21:38:56.193Z,102580.94
2022-10-06T21:41:32.282Z,102572.41
2022-10-06T21:44:10.886Z,102568.41
2022-10-06T21:46:51.505Z,102572.66
2022-10-06T21:49:25.433Z,102572.19
2022-10-06T21:51:54.140Z,102563.31
2022-10-06T21:54:22.160Z,102569.97
2022-10-06T21:56:49.241Z,102572.84
2022-10-06T21:59:15.767Z,102568.09
2022-10-06T22:01:44.477Z,102569.66
2022-10-06T22:04:12.975Z,102560.88
2022-10-06T22:06:40.151Z,102567.59
2022-10-06T22:09:09.129Z,102566.34
2022-10-06T22:11:37.782Z,102561.00
2022-10-06T22:14:06.875Z,102559.91
2022-10-06T22:16:35.135Z,102557.66
2022-10-06T22:19:04.195Z,102549.72
2022-10-06T22:21:33.406Z,102553.31
2022-10-06T22:24:11.767Z,102559.28
2022-10-06T22:26:40.145Z,102561.94
2022-10-06T22:29:08.849Z,102559.69
2022-10-06T22:31:38.429Z,102552.94
2022-10-06T22:34:05.363Z,102550.44
2022-10-06T22:36:33.695Z,102552.41
2022-10-06T22:39:01.115Z,102549.19
2022-10-06T22:41:28.194Z,102544.72
2022-10-06T22:43:59.463Z,102538.53
2022-10-06T22:46:28.111Z,102534.53
2022-10-06T22:48:54.873Z,102544.56
2022-10-06T22:51:21.523Z,102543.59
2022-10-06T22:53:56.544Z,102546.78
2022-10-06T22:56:24.988Z,102538.00
2022-10-06T22:58:51.501Z,102532.88
2022-10-06T23:01:19.616Z,102532.72
2022-10-06T23:03:47.284Z,102531.03
2022-10-06T23:06:16.155Z,102524.22
2022-10-06T23:08:42.956Z,102534.66
2022-10-06T23:11:13.091Z,102530.66
2022-10-06T23:13:40.495Z,102525.38
2022-10-06T23:16:08.891Z,102527.69
2022-10-06T23:18:38.034Z,102532.13
2022-10-06T23:21:05.703Z,102523.50
2022-10-06T23:23:32.819Z,102524.59
2022-10-06T23:26:25.902Z,102517.06
2022-10-06T23:28:58.850Z,102521.31
2022-10-06T23:31:26.166Z,102516.53
2022-10-06T23:33:53.662Z,102518.47
2022-10-06T23:36:20.784Z,102520.41
2022-10-06T23:38:47.629Z,102519.09
2022-10-06T23:41:14.558Z,102525.22
2022-10-06T23:43:41.517Z,102530.75
2022-10-06T23:46:08.195Z,102521.94
2022-10-06T23:48:34.730Z,102519.16
2022-10-06T23:51:09.856Z,102518.06
2022-10-06T23:53:36.634Z,102520.72
2022-10-06T23:56:04.328Z,102534.13
2022-10-06T23:58:31.127Z,102531.88
